Time;durP1;ratioP1;P1;durP2;ratioP2;P2;SDS_P1;SDS_P2;PMS_P1;PMS_P2;Temp;Humidity;BMP_temperature;BMP_pressure;BME280_temperature;BME280_humidity;BME280_pressure;Samples;Min_cycle;Max_cycle;Signal;HPM_P1;HPM_P2
2021/04/19 00:01:06;;;;;;;3.67;3.37;;;5.30;99.90;;;;;;4675579;30;20955;-80
2021/04/19 00:03:32;;;;;;;4.43;3.67;;;5.30;99.90;;;;;;4681101;30;20884;-80
2021/04/19 00:05:58;;;;;;;4.22;3.58;;;5.30;99.90;;;;;;4672239;30;20522;-81
2021/04/19 00:08:23;;;;;;;4.18;3.58;;;5.20;99.90;;;;;;4676185;30;21222;-81
2021/04/19 00:10:49;;;;;;;3.80;3.50;;;5.30;99.90;;;;;;4681288;30;20429;-80
2021/04/19 00:13:15;;;;;;;3.40;3.17;;;5.30;99.90;;;;;;4684918;30;20459;-81
2021/04/19 00:15:42;;;;;;;3.85;3.40;;;5.30;99.90;;;;;;4694897;30;20433;-81
2021/04/19 00:18:12;;;;;;;3.83;3.53;;;5.40;99.90;;;;;;4693621;30;20492;-81
2021/04/19 00:20:39;;;;;;;3.80;3.40;;;5.40;99.90;;;;;;4688429;30;20439;-81
2021/04/19 00:23:04;;;;;;;6.00;3.73;;;5.40;99.90;;;;;;4685211;30;20433;-81
2021/04/19 00:25:30;;;;;;;3.50;3.20;;;5.40;99.90;;;;;;4684939;30;20556;-81
2021/04/19 00:27:56;;;;;;;3.50;3.20;;;5.40;99.90;;;;;;4681410;30;20486;-81
2021/04/19 00:30:22;;;;;;;3.43;3.13;;;5.40;99.90;;;;;;4678775;30;20429;-80
2021/04/19 00:32:48;;;;;;;3.58;3.28;;;5.30;99.90;;;;;;4681795;30;20429;-81
2021/04/19 00:35:14;;;;;;;3.27;3.07;;;5.20;99.90;;;;;;4690167;30;20422;-78
2021/04/19 00:37:40;;;;;;;3.63;3.20;;;5.30;99.90;;;;;;4682329;30;20421;-79
2021/04/19 00:40:11;;;;;;;3.17;2.90;;;5.30;99.90;;;;;;4680026;30;20474;-78
2021/04/19 00:42:37;;;;;;;3.20;2.90;;;5.30;99.90;;;;;;4683589;30;20800;-80
2021/04/19 00:45:05;;;;;;;3.45;3.15;;;5.20;99.90;;;;;;4683930;30;20976;-80
2021/04/19 00:47:31;;;;;;;3.10;2.90;;;5.20;99.90;;;;;;4701155;30;20490;-80
2021/04/19 00:49:56;;;;;;;4.05;3.20;;;5.20;99.90;;;;;;4680838;30;20455;-81
2021/04/19 00:52:38;;;;;;;3.60;3.30;;;5.20;99.90;;;;;;4666255;30;20441;-81
2021/04/19 00:55:10;;;;;;;3.63;3.33;;;5.10;99.90;;;;;;4682043;30;20938;-79
2021/04/19 00:57:36;;;;;;;2.92;2.72;;;5.10;99.90;;;;;;4686394;30;20424;-79
2021/04/19 01:00:10;;;;;;;3.45;3.15;;;5.00;99.90;;;;;;4677820;30;20914;-79
2021/04/19 01:02:37;;;;;;;3.47;3.22;;;5.00;99.90;;;;;;4663820;30;20485;-79
2021/04/19 01:05:11;;;;;;;3.80;3.50;;;5.00;99.90;;;;;;4646477;30;20507;-79
2021/04/19 01:07:37;;;;;;;3.72;3.42;;;4.90;99.90;;;;;;4666015;30;20426;-80
2021/04/19 01:10:03;;;;;;;3.42;3.13;;;4.90;99.90;;;;;;4687854;30;20516;-80
2021/04/19 01:12:30;;;;;;;4.10;3.70;;;4.90;99.90;;;;;;4681420;30;20889;-81
2021/04/19 01:14:56;;;;;;;3.92;3.53;;;4.90;99.90;;;;;;4676826;30;20506;-81
2021/04/19 01:17:22;;;;;;;4.35;3.50;;;4.90;99.90;;;;;;4676840;30;20485;-81
2021/04/19 01:19:48;;;;;;;4.00;3.60;;;4.80;99.90;;;;;;4675823;30;20431;-81
2021/04/19 01:22:16;;;;;;;3.65;3.35;;;4.70;99.90;;;;;;4688153;30;20477;-80
2021/04/19 01:24:43;;;;;;;3.90;3.50;;;4.70;99.90;;;;;;4671864;30;20427;-81
2021/04/19 01:27:08;;;;;;;4.15;3.75;;;4.70;99.90;;;;;;4690666;30;20421;-81
2021/04/19 01:29:34;;;;;;;3.80;3.50;;;4.80;99.90;;;;;;4694648;30;20423;-81
2021/04/19 01:32:00;;;;;;;4.20;3.80;;;4.80;99.90;;;;;;4679554;30;20773;-81
2021/04/19 01:34:26;;;;;;;4.00;3.60;;;4.90;99.90;;;;;;4684789;30;20853;-81
2021/04/19 01:36:52;;;;;;;4.30;3.70;;;4.80;99.90;;;;;;4679730;30;20480;-81
2021/04/19 01:39:18;;;;;;;3.53;3.22;;;4.80;99.90;;;;;;4674894;30;20431;-81
2021/04/19 01:41:45;;;;;;;3.83;3.50;;;4.70;99.90;;;;;;4675268;30;20923;-81
2021/04/19 01:44:13;;;;;;;4.10;3.70;;;4.60;99.90;;;;;;4675020;30;20456;-81
2021/04/19 01:46:39;;;;;;;4.15;3.50;;;4.90;99.90;;;;;;4708610;30;20432;-81
2021/04/19 01:49:16;;;;;;;3.35;3.10;;;4.70;99.90;;;;;;4678029;30;20438;-81
2021/04/19 01:51:43;;;;;;;3.83;3.45;;;4.70;99.90;;;;;;4682285;30;20525;-81
2021/04/19 01:54:09;;;;;;;3.70;3.40;;;4.70;99.90;;;;;;4681516;30;20504;-81
2021/04/19 01:56:35;;;;;;;3.63;3.30;;;4.50;99.90;;;;;;4679232;30;20464;-81
2021/04/19 01:59:02;;;;;;;3.60;3.30;;;4.40;99.90;;;;;;4679756;30;20453;-81
2021/04/19 02:01:28;;;;;;;3.20;3.00;;;4.50;99.90;;;;;;4693942;30;20460;-81
2021/04/19 02:04:16;;;;;;;3.17;2.92;;;4.50;99.90;;;;;;4665691;30;20468;-81
2021/04/19 02:07:13;;;;;;;3.45;3.15;;;4.50;99.90;;;;;;4652586;30;20931;-81
2021/04/19 02:09:54;;;;;;;3.37;3.07;;;4.50;99.90;;;;;;4690439;30;20429;-81
2021/04/19 02:12:27;;;;;;;3.47;3.17;;;4.50;99.90;;;;;;4679886;30;20421;-80
2021/04/19 02:15:10;;;;;;;3.30;3.05;;;4.50;99.90;;;;;;4679733;30;20435;-81
2021/04/19 02:17:59;;;;;;;3.47;3.17;;;4.40;99.90;;;;;;4679597;30;20432;-81
2021/04/19 02:21:10;;;;;;;3.30;3.00;;;4.40;99.90;;;;;;4688704;30;20435;-80
2021/04/19 02:23:49;;;;;;;3.65;3.33;;;4.40;99.90;;;;;;4697836;30;20519;-80
2021/04/19 02:26:23;;;;;;;3.58;3.20;;;4.30;99.90;;;;;;4671824;30;20470;-79
2021/04/19 02:29:13;;;;;;;3.30;3.10;;;4.20;99.90;;;;;;4674348;30;20422;-80
2021/04/19 02:31:48;;;;;;;3.15;2.92;;;4.30;99.90;;;;;;4676930;30;20428;-78
2021/04/19 02:34:16;;;;;;;3.20;2.90;;;4.20;99.90;;;;;;4670483;30;20603;-78
2021/04/19 02:36:51;;;;;;;2.90;2.70;;;4.20;99.90;;;;;;4678141;30;20441;-78
2021/04/19 02:39:18;;;;;;;2.97;2.72;;;4.10;99.90;;;;;;4674445;30;20469;-80
2021/04/19 02:41:45;;;;;;;3.35;3.05;;;4.30;99.90;;;;;;4686114;30;20480;-77
2021/04/19 02:44:11;;;;;;;3.60;3.30;;;4.10;99.90;;;;;;4678016;30;20512;-77
2021/04/19 02:46:53;;;;;;;3.30;3.00;;;4.00;99.90;;;;;;4683449;30;20509;-78
2021/04/19 02:49:20;;;;;;;3.40;3.08;;;4.00;99.90;;;;;;4679603;30;20432;-78
2021/04/19 02:51:46;;;;;;;3.50;3.20;;;4.10;99.90;;;;;;4677915;30;20437;-78
2021/04/19 02:54:12;;;;;;;3.50;3.20;;;4.00;99.90;;;;;;4681392;30;20464;-77
2021/04/19 02:56:38;;;;;;;3.25;3.00;;;3.90;99.90;;;;;;4691706;30;20430;-77
2021/04/19 02:59:06;;;;;;;3.80;3.30;;;3.90;99.90;;;;;;4652921;30;20537;-77
2021/04/19 03:01:36;;;;;;;3.70;3.40;;;3.90;99.90;;;;;;4686703;30;20439;-77
2021/04/19 03:04:06;;;;;;;3.15;2.85;;;3.90;99.90;;;;;;4674662;30;20432;-75
2021/04/19 03:06:32;;;;;;;3.50;3.20;;;3.90;99.90;;;;;;4675593;30;20441;-75
2021/04/19 03:09:05;;;;;;;3.50;3.20;;;4.00;99.90;;;;;;4671114;30;20433;-75
2021/04/19 03:11:42;;;;;;;4.47;3.85;;;3.90;99.90;;;;;;4665030;30;20433;-75
2021/04/19 03:14:09;;;;;;;3.90;3.50;;;3.90;99.90;;;;;;4660335;30;20447;-75
2021/04/19 03:16:54;;;;;;;3.80;3.50;;;3.90;99.90;;;;;;4670864;30;20931;-75
2021/04/19 03:19:25;;;;;;;4.57;3.60;;;4.00;99.90;;;;;;4678968;30;20438;-75
2021/04/19 03:21:52;;;;;;;3.83;3.47;;;4.00;99.90;;;;;;4687294;30;20412;-75
2021/04/19 03:24:20;;;;;;;4.25;3.85;;;4.00;99.90;;;;;;4672587;30;20437;-75
2021/04/19 03:26:56;;;;;;;4.33;3.93;;;4.00;99.90;;;;;;4683032;30;20423;-75
2021/04/19 03:29:25;;;;;;;4.35;3.95;;;4.10;99.90;;;;;;4688296;30;20857;-75
2021/04/19 03:32:02;;;;;;;4.50;4.00;;;4.10;99.90;;;;;;4682540;30;20476;-75
2021/04/19 03:34:30;;;;;;;5.05;4.25;;;4.20;99.90;;;;;;4681018;30;20442;-75
2021/04/19 03:36:58;;;;;;;5.68;4.70;;;4.00;99.90;;;;;;4675061;30;20435;-75
2021/04/19 03:39:25;;;;;;;5.22;4.25;;;4.00;99.90;;;;;;4671468;30;20518;-75
2021/04/19 03:41:53;;;;;;;4.10;3.72;;;4.00;99.90;;;;;;4682192;30;20471;-75
2021/04/19 03:44:21;;;;;;;4.43;4.03;;;3.90;99.90;;;;;;4680617;30;20449;-74
2021/04/19 03:46:48;;;;;;;5.88;5.22;;;4.00;99.90;;;;;;4678550;30;20427;-75
2021/04/19 03:49:24;;;;;;;5.03;4.47;;;4.10;99.90;;;;;;4680839;30;20501;-75
2021/04/19 03:52:03;;;;;;;4.93;4.43;;;4.10;99.90;;;;;;4678940;30;20421;-78
2021/04/19 03:54:34;;;;;;;5.00;4.28;;;4.10;99.90;;;;;;4691108;30;20422;-78
2021/04/19 03:57:02;;;;;;;5.75;4.60;;;4.00;99.90;;;;;;4682600;30;20516;-78
2021/04/19 03:59:28;;;;;;;4.78;4.18;;;4.00;99.90;;;;;;4677835;30;20429;-78
2021/04/19 04:02:01;;;;;;;4.40;4.00;;;4.10;99.90;;;;;;4676898;30;20421;-78
2021/04/19 04:04:29;;;;;;;4.07;3.67;;;3.90;99.90;;;;;;4696240;30;20453;-78
2021/04/19 04:07:00;;;;;;;4.50;4.10;;;3.90;99.90;;;;;;4690044;30;20429;-78
2021/04/19 04:09:33;;;;;;;4.07;3.67;;;3.80;99.90;;;;;;4686401;30;20422;-80
2021/04/19 04:11:59;;;;;;;4.43;4.03;;;3.90;99.90;;;;;;4680070;30;20437;-80
2021/04/19 04:14:35;;;;;;;3.88;3.58;;;3.80;99.90;;;;;;4696051;30;21108;-80
2021/04/19 04:17:02;;;;;;;4.35;3.92;;;3.70;99.90;;;;;;4679016;30;20564;-80
2021/04/19 04:19:51;;;;;;;5.30;4.45;;;3.60;99.90;;;;;;4684178;30;20490;-81
2021/04/19 04:22:18;;;;;;;5.05;4.55;;;3.50;99.90;;;;;;4681363;30;20791;-80
2021/04/19 04:24:46;;;;;;;4.93;4.43;;;3.40;99.90;;;;;;4680297;30;20442;-80
2021/04/19 04:27:12;;;;;;;5.15;4.65;;;3.40;99.90;;;;;;4681370;30;20508;-81
2021/04/19 04:29:41;;;;;;;5.35;4.82;;;3.50;99.90;;;;;;4673275;30;20490;-81
2021/04/19 04:32:39;;;;;;;4.70;4.30;;;3.40;99.90;;;;;;4686368;30;20423;-81
2021/04/19 04:35:25;;;;;;;4.90;3.97;;;3.20;99.90;;;;;;4676900;30;20431;-78
2021/04/19 04:38:07;;;;;;;4.60;4.20;;;3.20;99.90;;;;;;4679028;30;20474;-81
2021/04/19 04:40:44;;;;;;;4.18;3.80;;;3.20;99.90;;;;;;4657273;30;20423;-81
2021/04/19 04:43:16;;;;;;;4.97;3.90;;;3.20;99.90;;;;;;4656495;30;20523;-80
2021/04/19 04:45:43;;;;;;;3.05;2.83;;;3.20;99.90;;;;;;4661037;30;20519;-80
2021/04/19 04:48:24;;;;;;;3.70;3.40;;;3.20;99.90;;;;;;4681586;30;21007;-80
2021/04/19 04:50:56;;;;;;;3.60;3.30;;;3.00;99.90;;;;;;4684751;30;20496;-80
2021/04/19 04:53:33;;;;;;;3.08;2.88;;;3.00;99.90;;;;;;4681033;30;20442;-80
2021/04/19 04:56:00;;;;;;;5.80;3.60;;;3.00;99.90;;;;;;4677956;30;20987;-81
2021/04/19 04:58:46;;;;;;;3.80;3.30;;;3.20;99.90;;;;;;4682217;30;20783;-81
2021/04/19 05:01:12;;;;;;;3.53;3.23;;;3.30;99.90;;;;;;4694361;30;20758;-82
2021/04/19 05:03:39;;;;;;;3.72;3.42;;;3.40;99.90;;;;;;4677668;30;20528;-82
2021/04/19 05:06:08;;;;;;;3.97;3.60;;;3.40;99.90;;;;;;4669901;30;20442;-81
2021/04/19 05:08:37;;;;;;;3.30;3.10;;;3.30;99.90;;;;;;4673941;30;20925;-82
2021/04/19 05:11:03;;;;;;;3.55;3.25;;;3.30;99.90;;;;;;4672764;30;20520;-81
2021/04/19 05:13:28;;;;;;;3.70;3.40;;;3.20;99.90;;;;;;4681045;30;20527;-82
2021/04/19 05:15:54;;;;;;;3.70;3.40;;;3.30;99.90;;;;;;4680104;30;20462;-81
2021/04/19 05:18:20;;;;;;;3.55;3.22;;;3.30;99.90;;;;;;4696446;30;20437;-81
2021/04/19 05:20:46;;;;;;;3.60;3.30;;;3.10;99.90;;;;;;4682622;30;20512;-81
2021/04/19 05:23:13;;;;;;;3.27;2.80;;;3.10;99.90;;;;;;4686361;30;20527;-81
2021/04/19 05:25:39;;;;;;;3.70;3.35;;;3.20;99.90;;;;;;4661831;30;20483;-81
2021/04/19 05:28:05;;;;;;;3.40;3.10;;;3.10;99.90;;;;;;4681025;30;20504;-81
2021/04/19 05:30:31;;;;;;;3.97;3.67;;;3.20;99.90;;;;;;4684322;30;20530;-80
2021/04/19 05:33:00;;;;;;;3.77;3.47;;;3.20;99.90;;;;;;4689333;30;20815;-82
2021/04/19 05:35:27;;;;;;;3.83;3.47;;;3.30;99.90;;;;;;4663735;30;20960;-81
2021/04/19 05:38:22;;;;;;;4.22;3.58;;;3.40;99.90;;;;;;4664175;30;20433;-80
2021/04/19 05:40:48;;;;;;;3.78;3.47;;;3.40;99.90;;;;;;4708139;30;20722;-82
2021/04/19 05:44:05;;;;;;;3.70;3.28;;;3.50;99.90;;;;;;4688389;30;20822;-81
2021/04/19 05:47:47;;;;;;;4.80;4.30;;;3.50;99.90;;;;;;4678312;30;20451;-82
2021/04/19 05:50:58;;;;;;;3.70;3.40;;;3.30;99.90;;;;;;4684972;30;20447;-81
2021/04/19 05:53:37;;;;;;;4.00;3.38;;;3.30;99.90;;;;;;4671599;30;26196;-80
2021/04/19 05:56:17;;;;;;;6.80;3.83;;;3.30;99.90;;;;;;4640354;30;20437;-81
2021/04/19 06:06:12;;;;;;;4.22;3.83;;;3.70;99.90;;;;;;4676175;30;20482;-79
2021/04/19 06:08:43;;;;;;;5.35;4.82;;;3.90;99.90;;;;;;4661597;30;20415;-79
2021/04/19 06:11:16;;;;;;;4.95;4.38;;;3.90;99.90;;;;;;4664861;30;20440;-78
2021/04/19 06:13:53;;;;;;;5.57;5.05;;;3.90;99.90;;;;;;4665810;30;20423;-81
2021/04/19 06:16:19;;;;;;;4.70;4.28;;;3.80;99.90;;;;;;4656983;30;21025;-80
2021/04/19 06:18:45;;;;;;;5.70;5.20;;;3.90;99.90;;;;;;4631523;30;20435;-80
2021/04/19 06:21:34;;;;;;;5.35;4.80;;;4.20;99.90;;;;;;4649139;30;20884;-81
2021/04/19 06:24:02;;;;;;;4.25;3.85;;;4.10;99.90;;;;;;4687249;30;20481;-80
2021/04/19 06:26:35;;;;;;;6.93;5.22;;;4.10;99.90;;;;;;4645250;30;20405;-80
2021/04/19 06:29:05;;;;;;;4.60;4.20;;;4.20;99.90;;;;;;4647417;30;20436;-79
2021/04/19 06:31:31;;;;;;;4.88;4.35;;;4.30;99.90;;;;;;4643151;30;20500;-79
2021/04/19 06:37:58;;;;;;;4.95;3.97;;;4.60;99.90;;;;;;4660684;30;20529;-80
2021/04/19 06:40:24;;;;;;;5.13;4.57;;;4.70;99.90;;;;;;4652663;30;20443;-80
2021/04/19 06:42:55;;;;;;;4.17;3.77;;;4.80;99.90;;;;;;4653338;30;20443;-79
2021/04/19 06:45:21;;;;;;;5.28;4.07;;;4.90;99.90;;;;;;4653558;30;20439;-79
2021/04/19 06:47:47;;;;;;;4.65;4.25;;;4.90;99.90;;;;;;4647056;30;20425;-79
2021/04/19 06:50:12;;;;;;;5.07;4.38;;;4.90;99.90;;;;;;4660220;30;20447;-79
2021/04/19 06:52:42;;;;;;;5.03;4.10;;;5.00;99.90;;;;;;4670631;30;20437;-80
2021/04/19 06:55:08;;;;;;;4.50;4.07;;;5.10;99.90;;;;;;4657305;30;20421;-79
2021/04/19 06:57:38;;;;;;;5.95;4.53;;;5.20;99.90;;;;;;4648580;30;20423;-81
2021/04/19 07:00:05;;;;;;;4.27;3.97;;;5.30;99.90;;;;;;4659846;30;20462;-81
2021/04/19 07:02:33;;;;;;;4.88;4.40;;;5.40;99.90;;;;;;4678381;30;20425;-79
2021/04/19 07:04:59;;;;;;;4.63;4.23;;;5.40;99.90;;;;;;4667013;30;20521;-78
2021/04/19 07:07:35;;;;;;;4.33;3.97;;;5.50;99.90;;;;;;4645829;30;20512;-79
2021/04/19 07:10:02;;;;;;;4.53;3.90;;;5.50;99.90;;;;;;4654201;30;20436;-78
2021/04/19 07:12:28;;;;;;;4.60;4.20;;;5.60;99.90;;;;;;4647210;30;20450;-80
2021/04/19 07:14:54;;;;;;;3.92;3.63;;;5.70;99.90;;;;;;4644313;30;20508;-82
2021/04/19 07:18:15;;;;;;;4.47;4.07;;;5.60;99.90;;;;;;4645971;30;20478;-81
2021/04/19 07:20:44;;;;;;;4.65;4.10;;;5.60;99.90;;;;;;4632701;30;20507;-78
2021/04/19 07:23:38;;;;;;;4.53;4.13;;;5.90;99.90;;;;;;4643834;30;20515;-81
2021/04/19 07:26:04;;;;;;;4.68;4.28;;;6.00;99.90;;;;;;4648231;30;20805;-81
2021/04/19 07:28:37;;;;;;;4.40;4.00;;;6.00;99.90;;;;;;4654867;30;20433;-81
2021/04/19 07:31:09;;;;;;;5.00;4.30;;;6.10;99.90;;;;;;4674838;30;20405;-82
2021/04/19 07:33:35;;;;;;;4.22;3.83;;;6.10;99.90;;;;;;4670205;30;20444;-78
2021/04/19 07:36:38;;;;;;;5.28;4.78;;;6.20;99.90;;;;;;4651514;30;20429;-80
2021/04/19 07:39:34;;;;;;;5.13;4.40;;;6.20;99.90;;;;;;4663805;30;20444;-81
2021/04/19 07:42:03;;;;;;;5.35;4.82;;;6.30;99.90;;;;;;4677404;30;20424;-80
2021/04/19 07:44:46;;;;;;;5.20;4.70;;;6.30;99.90;;;;;;4650353;30;20777;-81
2021/04/19 07:47:35;;;;;;;5.85;5.25;;;6.40;99.90;;;;;;4650232;30;20495;-81
2021/04/19 07:50:16;;;;;;;5.70;5.10;;;6.40;99.90;;;;;;4658649;30;20436;-79
2021/04/19 07:52:59;;;;;;;6.10;5.45;;;6.50;99.90;;;;;;4673177;30;20445;-81
2021/04/19 07:55:34;;;;;;;6.32;5.45;;;6.50;99.90;;;;;;4658585;30;20436;-79
2021/04/19 07:58:00;;;;;;;5.93;5.15;;;6.70;99.90;;;;;;4634040;30;20948;-79
2021/04/19 08:00:31;;;;;;;5.95;5.35;;;6.70;99.90;;;;;;4650976;30;20532;-78
2021/04/19 08:03:18;;;;;;;5.82;5.22;;;6.90;99.90;;;;;;4664530;30;20440;-79
2021/04/19 08:05:55;;;;;;;5.60;5.10;;;6.90;99.90;;;;;;4649722;30;20428;-80
2021/04/19 08:08:34;;;;;;;6.63;5.57;;;7.00;99.90;;;;;;4648650;30;20440;-80
2021/04/19 08:11:10;;;;;;;5.60;5.05;;;7.20;99.90;;;;;;4638316;30;20462;-80
2021/04/19 08:13:36;;;;;;;7.82;6.70;;;7.30;99.90;;;;;;4656220;30;21073;-80
2021/04/19 08:16:24;;;;;;;6.75;5.30;;;7.60;99.90;;;;;;4634287;30;20413;-80
2021/04/19 08:18:50;;;;;;;5.97;5.30;;;7.70;99.90;;;;;;4660285;30;20460;-79
2021/04/19 08:21:26;;;;;;;5.93;5.30;;;7.70;99.90;;;;;;4658719;30;20491;-80
2021/04/19 08:24:09;;;;;;;5.70;5.20;;;7.90;99.90;;;;;;4625569;30;20526;-81
2021/04/19 08:27:10;;;;;;;5.50;4.95;;;8.10;99.90;;;;;;4651750;30;20429;-80
2021/04/19 08:29:42;;;;;;;6.00;5.40;;;8.20;99.90;;;;;;4655627;30;20437;-80
2021/04/19 08:32:08;;;;;;;5.80;5.23;;;8.60;99.90;;;;;;4648100;30;20429;-80
2021/04/19 08:35:26;;;;;;;5.40;4.90;;;8.60;99.90;;;;;;4656116;30;20490;-81
2021/04/19 08:37:58;;;;;;;5.85;5.20;;;8.90;99.90;;;;;;4662226;30;20427;-79
2021/04/19 08:40:25;;;;;;;6.90;5.80;;;9.00;99.90;;;;;;4664360;30;20958;-78
2021/04/19 08:42:52;;;;;;;5.70;5.10;;;9.10;99.90;;;;;;4639214;30;21113;-80
2021/04/19 08:45:17;;;;;;;6.07;5.32;;;9.10;99.90;;;;;;4674259;30;20428;-79
2021/04/19 08:47:46;;;;;;;5.95;5.35;;;9.20;99.90;;;;;;4657827;30;20817;-81
2021/04/19 08:50:21;;;;;;;6.13;5.53;;;9.30;99.90;;;;;;4649934;30;20423;-81
2021/04/19 08:52:46;;;;;;;6.18;5.57;;;9.30;99.90;;;;;;4668278;30;20435;-80
2021/04/19 08:55:14;;;;;;;5.70;5.10;;;9.30;99.90;;;;;;4657457;30;20424;-79
2021/04/19 08:57:43;;;;;;;7.47;6.20;;;9.30;99.90;;;;;;4662579;30;20424;-81
2021/04/19 09:04:18;;;;;;;6.50;5.90;;;9.30;99.90;;;;;;4672126;30;20452;-81
2021/04/19 09:10:15;;;;;;;6.22;5.63;;;9.20;99.90;;;;;;4672876;30;20441;-82
2021/04/19 09:13:25;;;;;;;7.28;5.90;;;9.40;99.90;;;;;;4678431;30;20527;-82
2021/04/19 09:20:02;;;;;;;7.00;5.83;;;9.60;99.90;;;;;;4663305;30;20456;-81
2021/04/19 09:22:32;;;;;;;6.68;5.70;;;9.80;99.90;;;;;;4649911;30;20521;-81
2021/04/19 09:25:00;;;;;;;6.38;5.78;;;9.90;99.90;;;;;;4647769;30;20461;-81
2021/04/19 09:27:56;;;;;;;7.35;5.60;;;10.00;99.90;;;;;;4662631;30;20800;-79
2021/04/19 09:30:25;;;;;;;7.22;5.72;;;10.10;99.90;;;;;;4640352;30;20630;-80
2021/04/19 09:33:03;;;;;;;7.60;6.03;;;10.20;99.90;;;;;;4663989;30;20446;-81
2021/04/19 09:35:42;;;;;;;5.45;4.95;;;10.20;99.90;;;;;;4658857;30;20828;-80
2021/04/19 09:38:11;;;;;;;6.53;5.65;;;10.20;99.90;;;;;;4661807;30;20437;-80
2021/04/19 09:40:46;;;;;;;5.28;4.78;;;10.20;99.90;;;;;;4663859;30;20429;-81
2021/04/19 09:43:11;;;;;;;6.77;5.60;;;10.20;99.90;;;;;;4652674;30;20448;-80
2021/04/19 09:45:49;;;;;;;5.67;5.17;;;10.30;99.90;;;;;;4658476;30;20516;-81
2021/04/19 09:48:27;;;;;;;8.13;6.28;;;10.30;99.90;;;;;;4662995;30;20437;-81
2021/04/19 09:50:57;;;;;;;6.53;5.75;;;10.40;99.90;;;;;;4656402;30;20524;-80
2021/04/19 09:53:23;;;;;;;6.60;5.75;;;10.40;99.90;;;;;;4661759;30;20757;-81
2021/04/19 09:55:49;;;;;;;6.35;5.75;;;10.40;99.90;;;;;;4646874;30;20424;-81
2021/04/19 09:58:15;;;;;;;6.25;5.60;;;10.30;99.90;;;;;;4647412;30;20508;-80
2021/04/19 10:00:42;;;;;;;6.20;5.33;;;10.40;99.90;;;;;;4616076;30;21080;-80
2021/04/19 10:03:08;;;;;;;7.65;5.82;;;10.50;99.90;;;;;;4665341;30;20452;-80
2021/04/19 10:05:33;;;;;;;9.13;5.47;;;10.60;99.90;;;;;;4656387;30;20452;-81
2021/04/19 10:08:00;;;;;;;6.27;5.67;;;10.70;99.90;;;;;;4662839;30;20430;-80
2021/04/19 10:10:26;;;;;;;7.22;6.53;;;10.70;99.90;;;;;;4656620;30;20452;-80
2021/04/19 10:12:52;;;;;;;6.95;6.22;;;10.60;99.90;;;;;;4650952;30;20420;-81
2021/04/19 10:15:19;;;;;;;9.48;6.32;;;10.70;99.90;;;;;;4649202;30;20735;-80
2021/04/19 10:17:45;;;;;;;8.00;6.70;;;10.70;99.90;;;;;;4648017;30;20929;-81
2021/04/19 10:20:22;;;;;;;9.93;6.53;;;10.70;99.90;;;;;;4650719;30;20457;-81
2021/04/19 10:23:07;;;;;;;7.03;6.32;;;10.80;99.90;;;;;;4647749;30;20503;-80
2021/04/19 10:25:52;;;;;;;6.43;5.78;;;10.90;99.90;;;;;;4664122;30;20436;-80
2021/04/19 10:28:31;;;;;;;8.63;6.47;;;11.00;99.90;;;;;;4663063;30;20432;-81
2021/04/19 10:31:19;;;;;;;7.63;6.43;;;11.00;99.90;;;;;;4656280;30;20430;-81
2021/04/19 10:33:51;;;;;;;7.70;6.80;;;11.20;99.90;;;;;;4642197;30;20456;-80
2021/04/19 10:36:27;;;;;;;9.95;7.35;;;11.30;99.90;;;;;;4662320;30;20424;-81
2021/04/19 10:39:36;;;;;;;9.13;6.60;;;11.30;99.90;;;;;;4632002;30;20460;-82
2021/04/19 10:42:32;;;;;;;6.88;6.20;;;11.30;99.90;;;;;;4636213;30;20455;-82
2021/04/19 10:45:30;;;;;;;7.68;6.88;;;11.20;99.90;;;;;;4636168;30;20447;-81
2021/04/19 10:53:06;;;;;;;7.70;6.55;;;11.30;99.90;;;;;;4629536;30;20435;-82
2021/04/19 11:10:21;;;;;;;7.80;7.07;;;12.40;99.90;;;;;;4733633;30;20442;-90
2021/04/19 11:13:16;;;;;;;7.97;7.03;;;12.20;99.90;;;;;;4732564;30;20439;-89
2021/04/19 11:15:47;;;;;;;8.63;7.05;;;12.30;99.90;;;;;;4675791;30;20420;-89
2021/04/19 11:18:24;;;;;;;7.47;6.78;;;12.60;99.90;;;;;;4703330;30;20568;-88
2021/04/19 11:20:51;;;;;;;7.95;6.50;;;13.10;99.90;;;;;;4717420;30;20871;-88
2021/04/19 11:23:23;;;;;;;8.85;7.43;;;13.30;99.90;;;;;;4714250;30;20422;-88
2021/04/19 11:25:50;;;;;;;8.38;7.22;;;13.60;99.90;;;;;;4711880;30;20442;-83
2021/04/19 11:28:23;;;;;;;8.30;6.90;;;13.90;99.90;;;;;;4713481;30;20402;-86
2021/04/19 11:30:52;;;;;;;7.32;6.53;;;14.30;99.90;;;;;;4690677;30;20478;-88
2021/04/19 11:33:23;;;;;;;8.57;7.07;;;14.60;99.90;;;;;;4713027;30;20427;-84
2021/04/19 11:35:50;;;;;;;8.17;7.10;;;14.70;99.90;;;;;;4697103;30;20702;-90
2021/04/19 11:38:15;;;;;;;8.90;6.82;;;14.70;99.90;;;;;;4712499;30;20427;-86
2021/04/19 11:40:44;;;;;;;7.38;6.30;;;14.50;99.90;;;;;;4705248;30;20436;-86
2021/04/19 11:43:21;;;;;;;7.40;6.10;;;14.60;99.90;;;;;;4692716;30;20442;-81
2021/04/19 11:46:08;;;;;;;6.75;6.05;;;15.00;99.90;;;;;;4699209;30;20433;-82
2021/04/19 11:48:36;;;;;;;7.68;6.45;;;15.10;99.90;;;;;;4693367;30;20420;-82
2021/04/19 11:51:03;;;;;;;6.35;5.75;;;15.20;99.90;;;;;;4696248;30;20421;-83
2021/04/19 11:53:31;;;;;;;7.15;6.15;;;15.30;99.90;;;;;;4678507;30;20449;-78
2021/04/19 11:55:57;;;;;;;6.70;6.00;;;15.40;99.90;;;;;;4697833;30;20441;-83
2021/04/19 11:58:23;;;;;;;5.80;5.28;;;15.70;99.90;;;;;;4683831;30;20457;-80
2021/04/19 12:00:52;;;;;;;6.80;5.57;;;16.20;99.90;;;;;;4696183;30;20432;-87
2021/04/19 12:03:18;;;;;;;5.78;5.10;;;16.30;99.90;;;;;;4678096;30;20464;-87
2021/04/19 12:05:43;;;;;;;4.90;4.50;;;16.60;99.90;;;;;;4710856;30;20415;-84
2021/04/19 12:08:10;;;;;;;4.85;4.35;;;17.10;99.90;;;;;;4708482;30;20430;-87
2021/04/19 12:10:39;;;;;;;3.95;3.58;;;17.00;99.90;;;;;;4696759;30;20425;-86
2021/04/19 12:13:05;;;;;;;5.27;3.50;;;17.20;99.90;;;;;;4680243;30;20518;-80
2021/04/19 12:15:31;;;;;;;3.97;3.47;;;17.40;99.90;;;;;;4693155;30;20437;-88
2021/04/19 12:17:57;;;;;;;3.65;3.35;;;17.70;99.90;;;;;;4691770;30;20417;-85
2021/04/19 12:20:23;;;;;;;3.55;3.25;;;18.20;99.90;;;;;;4680951;30;20441;-84
2021/04/19 12:22:49;;;;;;;3.87;3.17;;;18.20;99.90;;;;;;4696167;30;20433;-79
2021/04/19 12:25:15;;;;;;;3.40;3.13;;;18.30;99.90;;;;;;4694908;30;20452;-84
2021/04/19 12:27:41;;;;;;;3.08;2.78;;;18.10;99.90;;;;;;4674630;30;20415;-86
2021/04/19 12:30:18;;;;;;;4.80;3.65;;;18.20;99.90;;;;;;4690796;30;20464;-85
2021/04/19 12:32:44;;;;;;;3.50;3.20;;;17.80;99.90;;;;;;4704717;30;20448;-85
2021/04/19 12:35:11;;;;;;;3.78;3.42;;;18.10;99.90;;;;;;4692486;30;20950;-89
2021/04/19 12:37:37;;;;;;;4.30;3.25;;;18.20;99.90;;;;;;4689339;30;20938;-81
2021/04/19 12:40:03;;;;;;;3.70;3.28;;;18.10;99.90;;;;;;4702948;30;20426;-84
2021/04/19 12:42:29;;;;;;;3.85;3.50;;;18.10;99.90;;;;;;4690274;30;20458;-82
2021/04/19 12:44:55;;;;;;;4.93;3.70;;;18.10;99.90;;;;;;4702208;30;20439;-80
2021/04/19 12:47:20;;;;;;;3.90;3.50;;;17.80;99.90;;;;;;4685682;30;20746;-81
2021/04/19 12:49:46;;;;;;;3.83;3.53;;;18.00;99.90;;;;;;4687721;30;20434;-77
2021/04/19 12:52:12;;;;;;;4.15;3.58;;;17.90;99.90;;;;;;4719376;30;20438;-84
2021/04/19 12:54:40;;;;;;;4.20;3.80;;;18.50;99.90;;;;;;4727122;30;20423;-83
2021/04/19 12:57:06;;;;;;;3.93;3.60;;;18.80;99.90;;;;;;4683523;30;20523;-88
2021/04/19 12:59:32;;;;;;;3.70;3.40;;;19.10;99.90;;;;;;4677570;30;21005;-85
2021/04/19 13:01:58;;;;;;;6.93;3.67;;;18.90;99.90;;;;;;4676902;30;20419;-81
2021/04/19 13:04:24;;;;;;;6.40;3.80;;;19.10;99.90;;;;;;4682474;30;20433;-82
2021/04/19 13:06:50;;;;;;;3.60;3.30;;;19.10;99.90;;;;;;4691039;30;20574;-80
2021/04/19 13:09:16;;;;;;;5.70;3.97;;;19.20;99.90;;;;;;4687648;30;20472;-80
2021/04/19 13:11:41;;;;;;;3.70;3.40;;;19.80;99.90;;;;;;4686220;30;20452;-81
2021/04/19 13:14:07;;;;;;;4.95;3.72;;;19.10;99.90;;;;;;4698379;30;20445;-78
2021/04/19 13:16:34;;;;;;;4.45;3.55;;;19.20;99.90;;;;;;4665158;30;20445;-82
2021/04/19 13:19:00;;;;;;;4.72;3.70;;;19.30;99.90;;;;;;4683984;30;20441;-82
2021/04/19 13:21:27;;;;;;;4.30;3.90;;;19.00;99.90;;;;;;4680793;30;20472;-81
2021/04/19 13:23:55;;;;;;;4.90;3.47;;;18.70;99.90;;;;;;4688002;30;20489;-80
2021/04/19 13:26:21;;;;;;;4.28;3.88;;;18.40;99.90;;;;;;4685108;30;20440;-80
2021/04/19 13:28:47;;;;;;;4.07;3.67;;;18.70;99.90;;;;;;4688150;30;20441;-81
2021/04/19 13:31:12;;;;;;;4.78;3.47;;;18.80;99.90;;;;;;4702125;30;20532;-81
2021/04/19 13:33:38;;;;;;;3.77;3.33;;;19.00;99.90;;;;;;4687787;30;20866;-81
2021/04/19 13:36:04;;;;;;;3.38;3.08;;;19.00;99.90;;;;;;4695938;30;20430;-81
2021/04/19 13:38:30;;;;;;;3.53;3.23;;;19.30;99.90;;;;;;4683463;30;20435;-83
2021/04/19 13:40:55;;;;;;;3.80;3.45;;;19.40;99.90;;;;;;4681854;30;20451;-81
2021/04/19 13:43:21;;;;;;;3.73;3.30;;;19.80;99.90;;;;;;4704667;30;20469;-82
2021/04/19 13:45:47;;;;;;;3.47;2.80;;;20.10;99.90;;;;;;4692282;30;20425;-81
2021/04/19 13:48:13;;;;;;;3.37;3.00;;;20.10;99.90;;;;;;4689877;30;20932;-81
2021/04/19 13:50:38;;;;;;;3.15;2.85;;;20.70;99.90;;;;;;4690651;30;20801;-81
2021/04/19 13:53:04;;;;;;;3.10;2.90;;;21.30;99.90;;;;;;4685143;30;20469;-80
2021/04/19 13:55:30;;;;;;;4.00;3.17;;;21.40;99.90;;;;;;4687347;30;21221;-81
2021/04/19 13:57:56;;;;;;;3.20;2.97;;;20.60;99.90;;;;;;4691079;30;20439;-81
2021/04/19 14:00:22;;;;;;;4.22;3.00;;;20.60;99.90;;;;;;4704474;30;20473;-81